sensor_id;sensor_type;location;lat;lon;timestamp;temperature;humidity
64951;DHT22;51482;47.014;7.652;2023-04-08T00:02:23;6.10;99.90
64951;DHT22;51482;47.014;7.652;2023-04-08T00:04:49;6.00;99.90
64951;DHT22;51482;47.014;7.652;2023-04-08T00:07:15;4.80;99.90
64951;DHT22;51482;47.014;7.652;2023-04-08T00:09:40;5.40;99.90
64951;DHT22;51482;47.014;7.652;2023-04-08T00:12:06;6.30;99.90
64951;DHT22;51482;47.014;7.652;2023-04-08T00:14:31;6.00;99.90
64951;DHT22;51482;47.014;7.652;2023-04-08T00:16:57;5.90;99.90
64951;DHT22;51482;47.014;7.652;2023-04-08T00:19:22;5.60;99.90
64951;DHT22;51482;47.014;7.652;2023-04-08T00:21:48;4.90;99.90
64951;DHT22;51482;47.014;7.652;2023-04-08T00:24:14;5.40;99.90
64951;DHT22;51482;47.014;7.652;2023-04-08T00:26:39;5.30;99.90
64951;DHT22;51482;47.014;7.652;2023-04-08T00:29:05;5.60;99.90
64951;DHT22;51482;47.014;7.652;2023-04-08T00:31:31;6.00;99.90
64951;DHT22;51482;47.014;7.652;2023-04-08T00:33:57;6.00;99.90
64951;DHT22;51482;47.014;7.652;2023-04-08T00:36:22;5.50;99.90
64951;DHT22;51482;47.014;7.652;2023-04-08T00:38:48;5.60;99.90
64951;DHT22;51482;47.014;7.652;2023-04-08T00:41:13;6.00;99.90
64951;DHT22;51482;47.014;7.652;2023-04-08T00:43:39;5.00;99.90
64951;DHT22;51482;47.014;7.652;2023-04-08T00:46:04;6.10;99.90
64951;DHT22;51482;47.014;7.652;2023-04-08T00:48:30;5.50;99.90
64951;DHT22;51482;47.014;7.652;2023-04-08T00:50:57;6.20;99.90
64951;DHT22;51482;47.014;7.652;2023-04-08T00:53:23;5.50;99.90
64951;DHT22;51482;47.014;7.652;2023-04-08T00:55:48;6.00;99.90
64951;DHT22;51482;47.014;7.652;2023-04-08T00:58:15;5.50;99.90
64951;DHT22;51482;47.014;7.652;2023-04-08T01:00:47;5.60;99.90
64951;DHT22;51482;47.014;7.652;2023-04-08T01:08:42;5.50;99.90
64951;DHT22;51482;47.014;7.652;2023-04-08T01:11:10;5.00;99.90
64951;DHT22;51482;47.014;7.652;2023-04-08T01:13:41;6.00;99.90
64951;DHT22;51482;47.014;7.652;2023-04-08T01:16:13;6.00;99.90
64951;DHT22;51482;47.014;7.652;2023-04-08T01:18:41;5.70;99.90
64951;DHT22;51482;47.014;7.652;2023-04-08T01:21:07;5.60;99.90
64951;DHT22;51482;47.014;7.652;2023-04-08T01:24:05;6.00;99.90
64951;DHT22;51482;47.014;7.652;2023-04-08T01:26:33;5.40;99.90
64951;DHT22;51482;47.014;7.652;2023-04-08T01:29:00;5.90;99.90
64951;DHT22;51482;47.014;7.652;2023-04-08T01:31:27;5.20;99.90
64951;DHT22;51482;47.014;7.652;2023-04-08T01:33:53;5.40;99.90
64951;DHT22;51482;47.014;7.652;2023-04-08T01:36:20;5.60;99.90
64951;DHT22;51482;47.014;7.652;2023-04-08T01:38:48;5.70;99.90
64951;DHT22;51482;47.014;7.652;2023-04-08T01:41:15;5.30;99.90
64951;DHT22;51482;47.014;7.652;2023-04-08T01:43:42;5.10;99.90
64951;DHT22;51482;47.014;7.652;2023-04-08T01:46:10;4.80;99.90
64951;DHT22;51482;47.014;7.652;2023-04-08T01:48:37;4.80;99.90
64951;DHT22;51482;47.014;7.652;2023-04-08T01:51:04;4.40;99.90
64951;DHT22;51482;47.014;7.652;2023-04-08T01:53:30;5.10;99.90
64951;DHT22;51482;47.014;7.652;2023-04-08T01:56:04;5.00;99.90
64951;DHT22;51482;47.014;7.652;2023-04-08T01:58:36;5.10;99.90
64951;DHT22;51482;47.014;7.652;2023-04-08T02:01:09;5.00;99.90
64951;DHT22;51482;47.014;7.652;2023-04-08T02:03:35;4.70;99.90
64951;DHT22;51482;47.014;7.652;2023-04-08T02:06:01;4.60;99.90
64951;DHT22;51482;47.014;7.652;2023-04-08T02:08:27;5.30;99.90
64951;DHT22;51482;47.014;7.652;2023-04-08T02:10:52;4.90;99.90
64951;DHT22;51482;47.014;7.652;2023-04-08T02:13:18;5.50;99.90
64951;DHT22;51482;47.014;7.652;2023-04-08T02:15:50;5.00;99.90
64951;DHT22;51482;47.014;7.652;2023-04-08T02:18:22;5.30;99.90
64951;DHT22;51482;47.014;7.652;2023-04-08T02:21:09;5.50;99.90
64951;DHT22;51482;47.014;7.652;2023-04-08T02:23:37;5.10;99.90
64951;DHT22;51482;47.014;7.652;2023-04-08T02:26:04;5.00;99.90
64951;DHT22;51482;47.014;7.652;2023-04-08T02:28:33;5.10;99.90
64951;DHT22;51482;47.014;7.652;2023-04-08T02:31:00;5.30;99.90
64951;DHT22;51482;47.014;7.652;2023-04-08T02:33:27;4.80;99.90
64951;DHT22;51482;47.014;7.652;2023-04-08T02:35:53;5.30;99.90
64951;DHT22;51482;47.014;7.652;2023-04-08T02:38:20;4.40;99.90
64951;DHT22;51482;47.014;7.652;2023-04-08T02:40:49;4.80;99.90
64951;DHT22;51482;47.014;7.652;2023-04-08T02:43:15;4.70;99.90
64951;DHT22;51482;47.014;7.652;2023-04-08T02:45:42;4.90;99.90
64951;DHT22;51482;47.014;7.652;2023-04-08T02:48:08;4.80;99.90
64951;DHT22;51482;47.014;7.652;2023-04-08T02:50:33;5.10;99.90
64951;DHT22;51482;47.014;7.652;2023-04-08T02:52:59;5.30;99.90
64951;DHT22;51482;47.014;7.652;2023-04-08T02:55:24;5.30;99.90
64951;DHT22;51482;47.014;7.652;2023-04-08T02:57:50;4.90;99.90
64951;DHT22;51482;47.014;7.652;2023-04-08T03:00:16;4.80;99.90
64951;DHT22;51482;47.014;7.652;2023-04-08T03:02:42;5.10;99.90
64951;DHT22;51482;47.014;7.652;2023-04-08T03:05:07;5.20;99.90
64951;DHT22;51482;47.014;7.652;2023-04-08T03:07:34;4.70;99.90
64951;DHT22;51482;47.014;7.652;2023-04-08T03:09:59;5.20;99.90
64951;DHT22;51482;47.014;7.652;2023-04-08T03:12:25;4.40;99.90
64951;DHT22;51482;47.014;7.652;2023-04-08T03:14:53;4.60;99.90
64951;DHT22;51482;47.014;7.652;2023-04-08T03:17:19;4.20;99.90
64951;DHT22;51482;47.014;7.652;2023-04-08T03:19:45;4.20;99.90
64951;DHT22;51482;47.014;7.652;2023-04-08T03:22:12;3.80;99.90
64951;DHT22;51482;47.014;7.652;2023-04-08T03:24:38;3.50;99.90
64951;DHT22;51482;47.014;7.652;2023-04-08T03:27:04;3.70;99.90
64951;DHT22;51482;47.014;7.652;2023-04-08T03:29:29;4.20;99.90
64951;DHT22;51482;47.014;7.652;2023-04-08T03:31:55;3.90;99.90
64951;DHT22;51482;47.014;7.652;2023-04-08T03:34:20;3.90;99.90
64951;DHT22;51482;47.014;7.652;2023-04-08T03:36:46;3.40;99.90
64951;DHT22;51482;47.014;7.652;2023-04-08T03:39:11;4.30;99.90
64951;DHT22;51482;47.014;7.652;2023-04-08T03:41:37;3.80;99.90
64951;DHT22;51482;47.014;7.652;2023-04-08T03:44:02;4.20;99.90
64951;DHT22;51482;47.014;7.652;2023-04-08T03:46:28;4.30;99.90
64951;DHT22;51482;47.014;7.652;2023-04-08T03:48:54;3.90;99.90
64951;DHT22;51482;47.014;7.652;2023-04-08T03:51:19;4.30;99.90
64951;DHT22;51482;47.014;7.652;2023-04-08T03:53:44;3.80;99.90
64951;DHT22;51482;47.014;7.652;2023-04-08T03:56:11;3.80;99.90
64951;DHT22;51482;47.014;7.652;2023-04-08T03:58:37;3.60;99.90
64951;DHT22;51482;47.014;7.652;2023-04-08T04:01:02;3.60;99.90
64951;DHT22;51482;47.014;7.652;2023-04-08T04:03:28;3.60;99.90
64951;DHT22;51482;47.014;7.652;2023-04-08T04:05:54;3.90;99.90
64951;DHT22;51482;47.014;7.652;2023-04-08T04:08:19;3.50;99.90
64951;DHT22;51482;47.014;7.652;2023-04-08T04:10:45;3.30;99.90
64951;DHT22;51482;47.014;7.652;2023-04-08T04:13:10;3.80;99.90
64951;DHT22;51482;47.014;7.652;2023-04-08T04:15:39;3.70;99.90
64951;DHT22;51482;47.014;7.652;2023-04-08T04:18:05;3.30;99.90
64951;DHT22;51482;47.014;7.652;2023-04-08T04:20:31;3.80;99.90
64951;DHT22;51482;47.014;7.652;2023-04-08T04:22:56;3.90;99.90
64951;DHT22;51482;47.014;7.652;2023-04-08T04:25:22;4.00;99.90
64951;DHT22;51482;47.014;7.652;2023-04-08T04:27:48;3.40;99.90
64951;DHT22;51482;47.014;7.652;2023-04-08T04:30:13;3.60;99.90
64951;DHT22;51482;47.014;7.652;2023-04-08T04:32:44;3.50;99.90
64951;DHT22;51482;47.014;7.652;2023-04-08T04:35:10;3.80;99.90
64951;DHT22;51482;47.014;7.652;2023-04-08T04:37:35;3.90;99.90
64951;DHT22;51482;47.014;7.652;2023-04-08T04:40:02;3.80;99.90
64951;DHT22;51482;47.014;7.652;2023-04-08T04:42:28;3.60;99.90
64951;DHT22;51482;47.014;7.652;2023-04-08T04:44:53;2.80;99.90
64951;DHT22;51482;47.014;7.652;2023-04-08T04:47:19;4.00;99.90
64951;DHT22;51482;47.014;7.652;2023-04-08T04:49:44;3.80;99.90
64951;DHT22;51482;47.014;7.652;2023-04-08T04:52:10;3.20;99.90
64951;DHT22;51482;47.014;7.652;2023-04-08T04:54:36;3.50;99.90
64951;DHT22;51482;47.014;7.652;2023-04-08T04:57:01;3.60;99.90
64951;DHT22;51482;47.014;7.652;2023-04-08T04:59:27;3.90;99.90
64951;DHT22;51482;47.014;7.652;2023-04-08T05:01:53;3.30;99.90
64951;DHT22;51482;47.014;7.652;2023-04-08T05:04:18;4.10;99.90
64951;DHT22;51482;47.014;7.652;2023-04-08T05:06:44;3.80;99.90
64951;DHT22;51482;47.014;7.652;2023-04-08T05:09:09;3.50;99.90
64951;DHT22;51482;47.014;7.652;2023-04-08T05:11:35;3.40;99.90
64951;DHT22;51482;47.014;7.652;2023-04-08T05:14:00;3.30;99.90
64951;DHT22;51482;47.014;7.652;2023-04-08T05:16:26;3.70;99.90
64951;DHT22;51482;47.014;7.652;2023-04-08T05:18:51;3.70;99.90
64951;DHT22;51482;47.014;7.652;2023-04-08T05:21:17;3.30;99.90
64951;DHT22;51482;47.014;7.652;2023-04-08T05:23:42;3.40;99.90
64951;DHT22;51482;47.014;7.652;2023-04-08T05:26:08;3.30;99.90
64951;DHT22;51482;47.014;7.652;2023-04-08T05:28:34;3.60;99.90
64951;DHT22;51482;47.014;7.652;2023-04-08T05:31:00;3.60;99.90
64951;DHT22;51482;47.014;7.652;2023-04-08T05:33:26;3.10;99.90
64951;DHT22;51482;47.014;7.652;2023-04-08T05:35:51;3.70;99.90
64951;DHT22;51482;47.014;7.652;2023-04-08T05:38:17;3.30;99.90
64951;DHT22;51482;47.014;7.652;2023-04-08T05:40:43;3.70;99.90
64951;DHT22;51482;47.014;7.652;2023-04-08T05:43:09;4.20;99.90
64951;DHT22;51482;47.014;7.652;2023-04-08T05:45:34;4.10;99.90
64951;DHT22;51482;47.014;7.652;2023-04-08T05:48:00;3.90;99.90
64951;DHT22;51482;47.014;7.652;2023-04-08T05:50:25;4.40;99.90
64951;DHT22;51482;47.014;7.652;2023-04-08T05:52:51;3.80;99.90
64951;DHT22;51482;47.014;7.652;2023-04-08T05:55:16;3.80;99.90
64951;DHT22;51482;47.014;7.652;2023-04-08T05:57:42;4.40;99.90
64951;DHT22;51482;47.014;7.652;2023-04-08T06:00:09;4.00;99.90
64951;DHT22;51482;47.014;7.652;2023-04-08T06:02:35;4.30;99.90
64951;DHT22;51482;47.014;7.652;2023-04-08T06:05:01;4.10;99.90
64951;DHT22;51482;47.014;7.652;2023-04-08T06:07:28;4.70;99.90
64951;DHT22;51482;47.014;7.652;2023-04-08T06:09:54;4.40;99.90
64951;DHT22;51482;47.014;7.652;2023-04-08T06:12:20;4.10;99.90
64951;DHT22;51482;47.014;7.652;2023-04-08T06:14:45;3.90;99.90
64951;DHT22;51482;47.014;7.652;2023-04-08T06:17:11;4.30;99.90
64951;DHT22;51482;47.014;7.652;2023-04-08T06:19:36;4.80;99.90
64951;DHT22;51482;47.014;7.652;2023-04-08T06:22:02;5.00;99.90
64951;DHT22;51482;47.014;7.652;2023-04-08T06:24:28;5.10;99.90
64951;DHT22;51482;47.014;7.652;2023-04-08T06:26:56;5.20;99.90
64951;DHT22;51482;47.014;7.652;2023-04-08T06:29:22;4.90;99.90
64951;DHT22;51482;47.014;7.652;2023-04-08T06:31:48;4.70;99.90
64951;DHT22;51482;47.014;7.652;2023-04-08T06:34:14;4.90;99.90
64951;DHT22;51482;47.014;7.652;2023-04-08T06:36:39;4.90;99.90
64951;DHT22;51482;47.014;7.652;2023-04-08T06:39:05;4.40;99.90
64951;DHT22;51482;47.014;7.652;2023-04-08T06:41:31;5.10;99.90
64951;DHT22;51482;47.014;7.652;2023-04-08T06:43:56;5.00;99.90
64951;DHT22;51482;47.014;7.652;2023-04-08T06:46:22;5.00;99.90
64951;DHT22;51482;47.014;7.652;2023-04-08T06:48:47;5.00;99.90
64951;DHT22;51482;47.014;7.652;2023-04-08T06:51:13;5.10;99.90
64951;DHT22;51482;47.014;7.652;2023-04-08T06:53:38;4.60;99.90
64951;DHT22;51482;47.014;7.652;2023-04-08T06:56:04;5.40;99.90
64951;DHT22;51482;47.014;7.652;2023-04-08T06:58:30;5.40;99.90
64951;DHT22;51482;47.014;7.652;2023-04-08T07:00:55;5.30;99.90
64951;DHT22;51482;47.014;7.652;2023-04-08T07:03:21;5.70;99.90
64951;DHT22;51482;47.014;7.652;2023-04-08T07:05:47;6.30;99.90
64951;DHT22;51482;47.014;7.652;2023-04-08T07:08:13;5.80;99.90
64951;DHT22;51482;47.014;7.652;2023-04-08T07:10:38;5.70;99.90
64951;DHT22;51482;47.014;7.652;2023-04-08T07:13:04;5.60;99.90
64951;DHT22;51482;47.014;7.652;2023-04-08T07:15:30;5.10;99.90
64951;DHT22;51482;47.014;7.652;2023-04-08T07:17:56;5.60;99.90
64951;DHT22;51482;47.014;7.652;2023-04-08T07:20:23;5.30;99.90
64951;DHT22;51482;47.014;7.652;2023-04-08T07:22:49;6.10;99.90
64951;DHT22;51482;47.014;7.652;2023-04-08T07:25:14;5.40;99.90
64951;DHT22;51482;47.014;7.652;2023-04-08T07:27:40;6.20;99.90
64951;DHT22;51482;47.014;7.652;2023-04-08T07:30:06;6.30;99.90
64951;DHT22;51482;47.014;7.652;2023-04-08T07:32:33;5.90;99.90
64951;DHT22;51482;47.014;7.652;2023-04-08T07:34:59;6.30;99.90
64951;DHT22;51482;47.014;7.652;2023-04-08T07:37:25;6.00;99.90
64951;DHT22;51482;47.014;7.652;2023-04-08T07:39:51;6.80;99.90
64951;DHT22;51482;47.014;7.652;2023-04-08T07:42:16;8.10;99.90
64951;DHT22;51482;47.014;7.652;2023-04-08T07:44:43;9.20;99.90
64951;DHT22;51482;47.014;7.652;2023-04-08T07:47:09;10.00;99.90
64951;DHT22;51482;47.014;7.652;2023-04-08T07:49:36;10.20;99.90
64951;DHT22;51482;47.014;7.652;2023-04-08T07:52:01;10.00;99.90
64951;DHT22;51482;47.014;7.652;2023-04-08T07:54:27;10.20;99.90
64951;DHT22;51482;47.014;7.652;2023-04-08T07:56:52;10.60;99.90
64951;DHT22;51482;47.014;7.652;2023-04-08T07:59:18;10.20;99.90
64951;DHT22;51482;47.014;7.652;2023-04-08T08:01:44;10.10;99.90
64951;DHT22;51482;47.014;7.652;2023-04-08T08:04:11;10.90;99.90
64951;DHT22;51482;47.014;7.652;2023-04-08T08:06:36;10.90;99.90
64951;DHT22;51482;47.014;7.652;2023-04-08T08:09:02;10.40;99.90
64951;DHT22;51482;47.014;7.652;2023-04-08T08:11:27;11.00;99.90
64951;DHT22;51482;47.014;7.652;2023-04-08T08:13:53;10.40;99.90
64951;DHT22;51482;47.014;7.652;2023-04-08T08:16:19;9.80;99.90
64951;DHT22;51482;47.014;7.652;2023-04-08T08:18:44;10.30;99.90
64951;DHT22;51482;47.014;7.652;2023-04-08T08:21:10;10.50;99.90
64951;DHT22;51482;47.014;7.652;2023-04-08T08:23:36;10.70;99.90
64951;DHT22;51482;47.014;7.652;2023-04-08T08:26:11;10.70;99.90
64951;DHT22;51482;47.014;7.652;2023-04-08T08:28:37;10.70;99.90
64951;DHT22;51482;47.014;7.652;2023-04-08T08:31:03;10.80;99.90
64951;DHT22;51482;47.014;7.652;2023-04-08T08:33:30;10.50;99.90
64951;DHT22;51482;47.014;7.652;2023-04-08T08:35:56;9.90;99.90
64951;DHT22;51482;47.014;7.652;2023-04-08T08:38:22;10.30;99.90
64951;DHT22;51482;47.014;7.652;2023-04-08T08:40:53;10.30;99.90
64951;DHT22;51482;47.014;7.652;2023-04-08T08:43:19;10.40;99.90
64951;DHT22;51482;47.014;7.652;2023-04-08T08:45:45;10.30;99.90
64951;DHT22;51482;47.014;7.652;2023-04-08T08:48:10;10.40;99.90
64951;DHT22;51482;47.014;7.652;2023-04-08T08:50:36;11.10;99.90
64951;DHT22;51482;47.014;7.652;2023-04-08T08:53:02;10.60;99.90
64951;DHT22;51482;47.014;7.652;2023-04-08T08:55:30;9.80;99.90
64951;DHT22;51482;47.014;7.652;2023-04-08T08:57:59;10.60;99.90
64951;DHT22;51482;47.014;7.652;2023-04-08T09:00:36;10.90;99.90
64951;DHT22;51482;47.014;7.652;2023-04-08T09:03:25;10.70;99.90
64951;DHT22;51482;47.014;7.652;2023-04-08T09:05:56;10.80;99.90
64951;DHT22;51482;47.014;7.652;2023-04-08T09:08:40;12.20;99.90
64951;DHT22;51482;47.014;7.652;2023-04-08T09:11:19;12.20;99.90
64951;DHT22;51482;47.014;7.652;2023-04-08T09:13:48;12.80;99.90
64951;DHT22;51482;47.014;7.652;2023-04-08T09:16:16;13.60;99.90
64951;DHT22;51482;47.014;7.652;2023-04-08T09:18:43;14.20;99.90
64951;DHT22;51482;47.014;7.652;2023-04-08T09:21:11;14.20;99.90
64951;DHT22;51482;47.014;7.652;2023-04-08T09:23:46;13.80;99.90
64951;DHT22;51482;47.014;7.652;2023-04-08T09:26:16;13.50;99.90
64951;DHT22;51482;47.014;7.652;2023-04-08T09:28:43;13.90;99.90
64951;DHT22;51482;47.014;7.652;2023-04-08T09:31:23;14.40;99.90
64951;DHT22;51482;47.014;7.652;2023-04-08T09:33:50;15.00;99.90
64951;DHT22;51482;47.014;7.652;2023-04-08T09:36:17;15.50;99.90
64951;DHT22;51482;47.014;7.652;2023-04-08T09:38:43;15.80;99.90
64951;DHT22;51482;47.014;7.652;2023-04-08T09:41:16;16.20;99.90
64951;DHT22;51482;47.014;7.652;2023-04-08T09:43:47;16.00;99.90
64951;DHT22;51482;47.014;7.652;2023-04-08T09:46:18;16.60;99.90
64951;DHT22;51482;47.014;7.652;2023-04-08T09:48:56;16.20;99.90
64951;DHT22;51482;47.014;7.652;2023-04-08T09:51:23;17.90;99.90
64951;DHT22;51482;47.014;7.652;2023-04-08T09:53:55;17.10;99.90
64951;DHT22;51482;47.014;7.652;2023-04-08T09:56:26;16.50;98.60
64951;DHT22;51482;47.014;7.652;2023-04-08T09:58:58;16.10;99.60
64951;DHT22;51482;47.014;7.652;2023-04-08T10:01:28;16.80;99.90
64951;DHT22;51482;47.014;7.652;2023-04-08T10:03:56;16.80;97.70
64951;DHT22;51482;47.014;7.652;2023-04-08T10:06:27;16.50;96.30
64951;DHT22;51482;47.014;7.652;2023-04-08T10:08:55;16.60;98.40
64951;DHT22;51482;47.014;7.652;2023-04-08T10:11:21;17.10;95.60
64951;DHT22;51482;47.014;7.652;2023-04-08T10:13:47;17.40;93.80
64951;DHT22;51482;47.014;7.652;2023-04-08T10:16:21;17.00;93.80
64951;DHT22;51482;47.014;7.652;2023-04-08T10:18:47;16.50;95.60
64951;DHT22;51482;47.014;7.652;2023-04-08T10:21:34;16.80;94.60
64951;DHT22;51482;47.014;7.652;2023-04-08T10:24:00;16.00;94.30
64951;DHT22;51482;47.014;7.652;2023-04-08T10:26:32;16.00;97.10
64951;DHT22;51482;47.014;7.652;2023-04-08T10:31:43;15.90;95.10
64951;DHT22;51482;47.014;7.652;2023-04-08T10:36:42;16.80;93.70
64951;DHT22;51482;47.014;7.652;2023-04-08T10:39:08;16.00;93.40
64951;DHT22;51482;47.014;7.652;2023-04-08T10:41:34;15.80;93.00
64951;DHT22;51482;47.014;7.652;2023-04-08T10:44:02;15.40;91.80
64951;DHT22;51482;47.014;7.652;2023-04-08T10:46:28;15.40;92.80
64951;DHT22;51482;47.014;7.652;2023-04-08T10:49:00;15.40;93.50
64951;DHT22;51482;47.014;7.652;2023-04-08T10:51:31;15.30;93.00
64951;DHT22;51482;47.014;7.652;2023-04-08T10:54:05;15.20;94.70
64951;DHT22;51482;47.014;7.652;2023-04-08T10:56:32;15.30;93.10
64951;DHT22;51482;47.014;7.652;2023-04-08T10:58:57;15.80;93.20
64951;DHT22;51482;47.014;7.652;2023-04-08T11:01:24;15.50;92.40
64951;DHT22;51482;47.014;7.652;2023-04-08T11:03:51;15.70;91.60
64951;DHT22;51482;47.014;7.652;2023-04-08T11:06:17;16.10;92.50
64951;DHT22;51482;47.014;7.652;2023-04-08T11:08:43;15.60;91.40
64951;DHT22;51482;47.014;7.652;2023-04-08T11:11:09;15.60;91.40
64951;DHT22;51482;47.014;7.652;2023-04-08T11:13:39;15.40;92.40
64951;DHT22;51482;47.014;7.652;2023-04-08T11:16:06;15.40;94.00
64951;DHT22;51482;47.014;7.652;2023-04-08T11:18:39;15.60;93.40
64951;DHT22;51482;47.014;7.652;2023-04-08T11:21:09;15.90;93.20
64951;DHT22;51482;47.014;7.652;2023-04-08T11:23:35;15.70;92.80
64951;DHT22;51482;47.014;7.652;2023-04-08T11:26:01;15.70;93.60
64951;DHT22;51482;47.014;7.652;2023-04-08T11:28:27;15.70;93.80
64951;DHT22;51482;47.014;7.652;2023-04-08T11:30:53;16.80;93.60
64951;DHT22;51482;47.014;7.652;2023-04-08T11:33:19;16.20;92.10
64951;DHT22;51482;47.014;7.652;2023-04-08T11:35:49;15.50;92.30
64951;DHT22;51482;47.014;7.652;2023-04-08T11:38:15;15.70;92.40
64951;DHT22;51482;47.014;7.652;2023-04-08T11:40:57;15.90;94.60
64951;DHT22;51482;47.014;7.652;2023-04-08T11:43:23;16.30;93.00
64951;DHT22;51482;47.014;7.652;2023-04-08T11:45:49;15.90;90.80
64951;DHT22;51482;47.014;7.652;2023-04-08T11:48:16;16.10;91.40
64951;DHT22;51482;47.014;7.652;2023-04-08T11:50:42;16.10;90.20
64951;DHT22;51482;47.014;7.652;2023-04-08T11:53:19;16.90;90.70
64951;DHT22;51482;47.014;7.652;2023-04-08T11:55:44;17.90;90.10
64951;DHT22;51482;47.014;7.652;2023-04-08T11:58:10;18.20;86.00
64951;DHT22;51482;47.014;7.652;2023-04-08T12:00:36;17.90;84.10
64951;DHT22;51482;47.014;7.652;2023-04-08T12:03:02;18.00;82.30
64951;DHT22;51482;47.014;7.652;2023-04-08T12:05:28;18.50;84.10
64951;DHT22;51482;47.014;7.652;2023-04-08T12:07:54;18.00;79.40
64951;DHT22;51482;47.014;7.652;2023-04-08T12:10:19;17.80;84.10
64951;DHT22;51482;47.014;7.652;2023-04-08T12:12:45;17.70;81.60
64951;DHT22;51482;47.014;7.652;2023-04-08T12:15:11;18.90;82.70
64951;DHT22;51482;47.014;7.652;2023-04-08T12:17:36;18.90;79.70
64951;DHT22;51482;47.014;7.652;2023-04-08T12:20:06;17.90;76.60
64951;DHT22;51482;47.014;7.652;2023-04-08T12:22:32;17.90;77.60
64951;DHT22;51482;47.014;7.652;2023-04-08T12:24:57;18.00;78.10
64951;DHT22;51482;47.014;7.652;2023-04-08T12:27:23;17.60;77.80
64951;DHT22;51482;47.014;7.652;2023-04-08T12:29:48;17.70;77.90
64951;DHT22;51482;47.014;7.652;2023-04-08T12:32:14;17.40;75.80
64951;DHT22;51482;47.014;7.652;2023-04-08T12:34:40;18.40;78.40
64951;DHT22;51482;47.014;7.652;2023-04-08T12:37:06;18.10;70.90
64951;DHT22;51482;47.014;7.652;2023-04-08T12:39:31;19.10;67.80
64951;DHT22;51482;47.014;7.652;2023-04-08T12:41:57;19.40;68.20
64951;DHT22;51482;47.014;7.652;2023-04-08T12:44:22;20.00;67.70
64951;DHT22;51482;47.014;7.652;2023-04-08T12:46:48;20.00;61.80
64951;DHT22;51482;47.014;7.652;2023-04-08T12:49:13;20.20;66.00
64951;DHT22;51482;47.014;7.652;2023-04-08T12:51:39;20.70;64.90
64951;DHT22;51482;47.014;7.652;2023-04-08T12:54:05;20.50;59.70
64951;DHT22;51482;47.014;7.652;2023-04-08T12:56:31;21.00;60.10
64951;DHT22;51482;47.014;7.652;2023-04-08T12:58:57;21.20;59.10
64951;DHT22;51482;47.014;7.652;2023-04-08T13:01:23;21.60;58.50
64951;DHT22;51482;47.014;7.652;2023-04-08T13:03:49;21.30;57.30
64951;DHT22;51482;47.014;7.652;2023-04-08T13:06:15;22.30;57.60
64951;DHT22;51482;47.014;7.652;2023-04-08T13:08:41;21.70;55.10
64951;DHT22;51482;47.014;7.652;2023-04-08T13:11:07;21.70;56.30
64951;DHT22;51482;47.014;7.652;2023-04-08T13:13:33;21.90;56.40
64951;DHT22;51482;47.014;7.652;2023-04-08T13:15:58;22.30;57.00
64951;DHT22;51482;47.014;7.652;2023-04-08T13:18:24;22.40;54.90
64951;DHT22;51482;47.014;7.652;2023-04-08T13:20:49;21.60;54.40
64951;DHT22;51482;47.014;7.652;2023-04-08T13:23:15;21.50;54.10
64951;DHT22;51482;47.014;7.652;2023-04-08T13:25:42;21.20;54.30
64951;DHT22;51482;47.014;7.652;2023-04-08T13:28:09;21.60;55.70
64951;DHT22;51482;47.014;7.652;2023-04-08T13:30:35;21.60;55.00
64951;DHT22;51482;47.014;7.652;2023-04-08T13:33:00;21.20;54.00
64951;DHT22;51482;47.014;7.652;2023-04-08T13:35:26;21.40;54.60
64951;DHT22;51482;47.014;7.652;2023-04-08T13:37:51;21.90;54.70
64951;DHT22;51482;47.014;7.652;2023-04-08T13:40:17;21.50;54.90
64951;DHT22;51482;47.014;7.652;2023-04-08T13:42:43;21.40;55.10
64951;DHT22;51482;47.014;7.652;2023-04-08T13:45:08;21.70;56.50
64951;DHT22;51482;47.014;7.652;2023-04-08T13:47:34;20.50;54.00
64951;DHT22;51482;47.014;7.652;2023-04-08T13:50:00;20.60;54.30
64951;DHT22;51482;47.014;7.652;2023-04-08T13:52:25;20.60;56.10
64951;DHT22;51482;47.014;7.652;2023-04-08T13:54:51;19.70;55.20
64951;DHT22;51482;47.014;7.652;2023-04-08T13:57:17;20.30;57.40
64951;DHT22;51482;47.014;7.652;2023-04-08T13:59:42;20.50;56.10
64951;DHT22;51482;47.014;7.652;2023-04-08T14:02:08;20.50;55.80
64951;DHT22;51482;47.014;7.652;2023-04-08T14:04:34;20.90;55.70
64951;DHT22;51482;47.014;7.652;2023-04-08T14:06:59;21.00;55.90
64951;DHT22;51482;47.014;7.652;2023-04-08T14:09:25;20.20;54.10
64951;DHT22;51482;47.014;7.652;2023-04-08T14:11:50;19.80;57.70
64951;DHT22;51482;47.014;7.652;2023-04-08T14:14:16;18.60;58.50
64951;DHT22;51482;47.014;7.652;2023-04-08T14:16:41;17.90;59.30
64951;DHT22;51482;47.014;7.652;2023-04-08T14:19:07;18.10;62.10
64951;DHT22;51482;47.014;7.652;2023-04-08T14:21:33;17.60;61.70
64951;DHT22;51482;47.014;7.652;2023-04-08T14:23:59;16.50;59.40
64951;DHT22;51482;47.014;7.652;2023-04-08T14:26:24;16.70;62.10
64951;DHT22;51482;47.014;7.652;2023-04-08T14:28:50;16.60;63.60
64951;DHT22;51482;47.014;7.652;2023-04-08T14:31:16;16.90;65.70
64951;DHT22;51482;47.014;7.652;2023-04-08T14:33:41;17.70;65.80
64951;DHT22;51482;47.014;7.652;2023-04-08T14:36:08;18.20;63.20
64951;DHT22;51482;47.014;7.652;2023-04-08T14:38:34;18.40;62.00
64951;DHT22;51482;47.014;7.652;2023-04-08T14:41:00;18.80;58.80
64951;DHT22;51482;47.014;7.652;2023-04-08T14:43:25;18.80;59.00
64951;DHT22;51482;47.014;7.652;2023-04-08T14:45:51;19.00;58.70
64951;DHT22;51482;47.014;7.652;2023-04-08T14:48:17;19.20;57.10
64951;DHT22;51482;47.014;7.652;2023-04-08T14:50:43;19.30;57.80
64951;DHT22;51482;47.014;7.652;2023-04-08T14:53:09;19.50;57.40
64951;DHT22;51482;47.014;7.652;2023-04-08T14:55:35;19.60;56.30
64951;DHT22;51482;47.014;7.652;2023-04-08T14:58:01;19.90;56.20
64951;DHT22;51482;47.014;7.652;2023-04-08T15:00:26;19.60;55.90
64951;DHT22;51482;47.014;7.652;2023-04-08T15:02:52;20.10;56.70
64951;DHT22;51482;47.014;7.652;2023-04-08T15:05:17;19.90;56.20
64951;DHT22;51482;47.014;7.652;2023-04-08T15:07:43;19.90;56.90
64951;DHT22;51482;47.014;7.652;2023-04-08T15:10:09;19.90;57.30
64951;DHT22;51482;47.014;7.652;2023-04-08T15:12:35;20.20;58.00
64951;DHT22;51482;47.014;7.652;2023-04-08T15:15:01;20.00;56.30
64951;DHT22;51482;47.014;7.652;2023-04-08T15:17:27;20.40;57.30
64951;DHT22;51482;47.014;7.652;2023-04-08T15:19:53;20.30;55.90
64951;DHT22;51482;47.014;7.652;2023-04-08T15:22:19;20.20;56.20
64951;DHT22;51482;47.014;7.652;2023-04-08T15:24:45;20.20;54.80
64951;DHT22;51482;47.014;7.652;2023-04-08T15:27:11;19.50;55.00
64951;DHT22;51482;47.014;7.652;2023-04-08T15:29:37;18.60;56.00
64951;DHT22;51482;47.014;7.652;2023-04-08T15:32:03;18.40;58.20
64951;DHT22;51482;47.014;7.652;2023-04-08T15:34:28;18.60;59.20
64951;DHT22;51482;47.014;7.652;2023-04-08T15:36:54;18.40;58.70
64951;DHT22;51482;47.014;7.652;2023-04-08T15:39:21;18.10;59.10
64951;DHT22;51482;47.014;7.652;2023-04-08T15:41:47;18.10;60.50
64951;DHT22;51482;47.014;7.652;2023-04-08T15:44:13;17.70;59.70
64951;DHT22;51482;47.014;7.652;2023-04-08T15:46:38;17.60;58.90